sensor_id;sensor_type;location;lat;lon;timestamp;temperature;humidity
24678;DHT22;12800;53.094;8.778;2023-09-18T00:00:46;20.70;89.20
24678;DHT22;12800;53.094;8.778;2023-09-18T00:03:12;20.70;89.20
24678;DHT22;12800;53.094;8.778;2023-09-18T00:05:37;20.70;89.20
24678;DHT22;12800;53.094;8.778;2023-09-18T00:08:03;20.60;89.20
24678;DHT22;12800;53.094;8.778;2023-09-18T00:10:29;20.60;89.20
24678;DHT22;12800;53.094;8.778;2023-09-18T00:12:56;20.60;89.20
24678;DHT22;12800;53.094;8.778;2023-09-18T00:15:22;20.60;89.30
24678;DHT22;12800;53.094;8.778;2023-09-18T00:17:47;20.60;89.40
24678;DHT22;12800;53.094;8.778;2023-09-18T00:20:13;20.50;89.40
24678;DHT22;12800;53.094;8.778;2023-09-18T00:22:39;20.50;89.40
24678;DHT22;12800;53.094;8.778;2023-09-18T00:25:05;20.50;89.40
24678;DHT22;12800;53.094;8.778;2023-09-18T00:27:31;20.50;89.60
24678;DHT22;12800;53.094;8.778;2023-09-18T00:29:58;20.50;89.60
24678;DHT22;12800;53.094;8.778;2023-09-18T00:32:24;20.50;89.50
24678;DHT22;12800;53.094;8.778;2023-09-18T00:34:49;20.50;89.60
24678;DHT22;12800;53.094;8.778;2023-09-18T00:37:15;20.50;89.50
24678;DHT22;12800;53.094;8.778;2023-09-18T00:39:42;20.60;89.60
24678;DHT22;12800;53.094;8.778;2023-09-18T00:42:08;20.60;89.50
24678;DHT22;12800;53.094;8.778;2023-09-18T00:44:39;20.60;89.40
24678;DHT22;12800;53.094;8.778;2023-09-18T00:47:05;20.60;89.40
24678;DHT22;12800;53.094;8.778;2023-09-18T00:49:32;20.50;89.30
24678;DHT22;12800;53.094;8.778;2023-09-18T00:51:58;20.50;89.30
24678;DHT22;12800;53.094;8.778;2023-09-18T00:54:24;20.50;89.30
24678;DHT22;12800;53.094;8.778;2023-09-18T00:56:50;20.50;89.20
24678;DHT22;12800;53.094;8.778;2023-09-18T00:59:19;20.50;89.30
24678;DHT22;12800;53.094;8.778;2023-09-18T01:01:46;20.50;89.30
24678;DHT22;12800;53.094;8.778;2023-09-18T01:04:15;20.50;89.30
24678;DHT22;12800;53.094;8.778;2023-09-18T01:06:41;20.50;89.30
24678;DHT22;12800;53.094;8.778;2023-09-18T01:09:07;20.50;89.30
24678;DHT22;12800;53.094;8.778;2023-09-18T01:14:20;20.40;89.30
24678;DHT22;12800;53.094;8.778;2023-09-18T01:16:53;20.40;89.30
24678;DHT22;12800;53.094;8.778;2023-09-18T01:19:40;20.40;89.30
24678;DHT22;12800;53.094;8.778;2023-09-18T01:22:08;20.30;89.30
24678;DHT22;12800;53.094;8.778;2023-09-18T01:24:35;20.30;89.40
24678;DHT22;12800;53.094;8.778;2023-09-18T01:27:02;20.30;89.40
24678;DHT22;12800;53.094;8.778;2023-09-18T01:29:30;20.30;89.40
24678;DHT22;12800;53.094;8.778;2023-09-18T01:31:56;20.30;89.50
24678;DHT22;12800;53.094;8.778;2023-09-18T01:34:37;20.30;89.50
24678;DHT22;12800;53.094;8.778;2023-09-18T01:37:05;20.20;89.50
24678;DHT22;12800;53.094;8.778;2023-09-18T01:39:32;20.20;90.20
24678;DHT22;12800;53.094;8.778;2023-09-18T01:42:01;20.20;89.60
24678;DHT22;12800;53.094;8.778;2023-09-18T01:44:28;20.20;89.70
24678;DHT22;12800;53.094;8.778;2023-09-18T01:46:56;20.20;89.70
24678;DHT22;12800;53.094;8.778;2023-09-18T01:49:28;20.10;89.70
24678;DHT22;12800;53.094;8.778;2023-09-18T01:51:55;20.10;89.70
24678;DHT22;12800;53.094;8.778;2023-09-18T01:54:20;20.10;89.80
24678;DHT22;12800;53.094;8.778;2023-09-18T01:56:46;20.10;89.80
24678;DHT22;12800;53.094;8.778;2023-09-18T01:59:12;20.10;89.80
24678;DHT22;12800;53.094;8.778;2023-09-18T02:01:37;20.10;89.80
24678;DHT22;12800;53.094;8.778;2023-09-18T02:04:04;20.10;89.80
24678;DHT22;12800;53.094;8.778;2023-09-18T02:06:30;20.10;89.80
24678;DHT22;12800;53.094;8.778;2023-09-18T02:08:55;20.10;89.80
24678;DHT22;12800;53.094;8.778;2023-09-18T02:11:21;20.10;89.90
24678;DHT22;12800;53.094;8.778;2023-09-18T02:13:47;20.10;89.70
24678;DHT22;12800;53.094;8.778;2023-09-18T02:16:12;20.10;89.70
24678;DHT22;12800;53.094;8.778;2023-09-18T02:18:38;20.10;89.70
24678;DHT22;12800;53.094;8.778;2023-09-18T02:21:03;20.10;89.60
24678;DHT22;12800;53.094;8.778;2023-09-18T02:23:29;20.10;89.60
24678;DHT22;12800;53.094;8.778;2023-09-18T02:25:58;20.10;89.50
24678;DHT22;12800;53.094;8.778;2023-09-18T02:28:24;20.10;89.50
24678;DHT22;12800;53.094;8.778;2023-09-18T02:30:51;20.10;89.30
24678;DHT22;12800;53.094;8.778;2023-09-18T02:33:16;20.10;90.00
24678;DHT22;12800;53.094;8.778;2023-09-18T02:35:42;20.10;90.00
24678;DHT22;12800;53.094;8.778;2023-09-18T02:38:10;20.10;89.20
24678;DHT22;12800;53.094;8.778;2023-09-18T02:40:36;20.10;89.00
24678;DHT22;12800;53.094;8.778;2023-09-18T02:43:01;20.10;89.00
24678;DHT22;12800;53.094;8.778;2023-09-18T02:45:27;20.10;89.00
24678;DHT22;12800;53.094;8.778;2023-09-18T02:47:53;20.10;89.00
24678;DHT22;12800;53.094;8.778;2023-09-18T02:50:19;20.10;88.90
24678;DHT22;12800;53.094;8.778;2023-09-18T02:52:44;20.10;88.90
24678;DHT22;12800;53.094;8.778;2023-09-18T02:55:10;20.10;88.90
24678;DHT22;12800;53.094;8.778;2023-09-18T02:57:35;20.10;88.80
24678;DHT22;12800;53.094;8.778;2023-09-18T03:00:01;20.10;88.80
24678;DHT22;12800;53.094;8.778;2023-09-18T03:02:30;20.10;88.80
24678;DHT22;12800;53.094;8.778;2023-09-18T03:04:55;20.10;88.70
24678;DHT22;12800;53.094;8.778;2023-09-18T03:07:21;20.10;88.80
24678;DHT22;12800;53.094;8.778;2023-09-18T03:09:47;20.00;88.60
24678;DHT22;12800;53.094;8.778;2023-09-18T03:12:13;20.00;88.60
24678;DHT22;12800;53.094;8.778;2023-09-18T03:14:38;20.00;88.60
24678;DHT22;12800;53.094;8.778;2023-09-18T03:17:04;20.00;88.70
24678;DHT22;12800;53.094;8.778;2023-09-18T03:19:30;20.00;88.70
24678;DHT22;12800;53.094;8.778;2023-09-18T03:21:56;20.00;88.70
24678;DHT22;12800;53.094;8.778;2023-09-18T03:24:21;19.90;88.60
24678;DHT22;12800;53.094;8.778;2023-09-18T03:26:47;19.90;88.60
24678;DHT22;12800;53.094;8.778;2023-09-18T03:29:14;19.90;88.60
24678;DHT22;12800;53.094;8.778;2023-09-18T03:31:40;20.00;88.60
24678;DHT22;12800;53.094;8.778;2023-09-18T03:34:06;20.00;88.50
24678;DHT22;12800;53.094;8.778;2023-09-18T03:36:31;20.00;88.40
24678;DHT22;12800;53.094;8.778;2023-09-18T03:38:57;20.00;88.40
24678;DHT22;12800;53.094;8.778;2023-09-18T03:41:23;20.00;88.30
24678;DHT22;12800;53.094;8.778;2023-09-18T03:43:49;20.00;88.20
24678;DHT22;12800;53.094;8.778;2023-09-18T03:46:15;20.10;88.20
24678;DHT22;12800;53.094;8.778;2023-09-18T03:48:41;20.10;88.10
24678;DHT22;12800;53.094;8.778;2023-09-18T03:51:06;20.10;88.00
24678;DHT22;12800;53.094;8.778;2023-09-18T03:53:33;20.10;87.90
24678;DHT22;12800;53.094;8.778;2023-09-18T03:55:59;20.10;87.80
24678;DHT22;12800;53.094;8.778;2023-09-18T03:58:25;20.10;87.80
24678;DHT22;12800;53.094;8.778;2023-09-18T04:00:51;20.10;87.80
24678;DHT22;12800;53.094;8.778;2023-09-18T04:03:17;20.10;87.60
24678;DHT22;12800;53.094;8.778;2023-09-18T04:05:42;20.10;87.50
24678;DHT22;12800;53.094;8.778;2023-09-18T04:08:08;20.10;87.50
24678;DHT22;12800;53.094;8.778;2023-09-18T04:10:34;20.10;87.50
24678;DHT22;12800;53.094;8.778;2023-09-18T04:13:00;20.10;87.40
24678;DHT22;12800;53.094;8.778;2023-09-18T04:15:26;20.10;88.20
24678;DHT22;12800;53.094;8.778;2023-09-18T04:17:53;20.10;87.30
24678;DHT22;12800;53.094;8.778;2023-09-18T04:20:18;20.10;87.30
24678;DHT22;12800;53.094;8.778;2023-09-18T04:22:46;20.10;87.30
24678;DHT22;12800;53.094;8.778;2023-09-18T04:25:15;20.10;87.30
24678;DHT22;12800;53.094;8.778;2023-09-18T04:27:41;20.10;87.30
24678;DHT22;12800;53.094;8.778;2023-09-18T04:30:08;20.00;87.20
24678;DHT22;12800;53.094;8.778;2023-09-18T04:32:37;20.00;87.20
24678;DHT22;12800;53.094;8.778;2023-09-18T04:35:03;20.00;87.20
24678;DHT22;12800;53.094;8.778;2023-09-18T04:37:30;20.00;87.20
24678;DHT22;12800;53.094;8.778;2023-09-18T04:39:57;20.00;88.00
24678;DHT22;12800;53.094;8.778;2023-09-18T04:42:23;20.00;87.20
24678;DHT22;12800;53.094;8.778;2023-09-18T04:44:48;20.10;87.30
24678;DHT22;12800;53.094;8.778;2023-09-18T04:47:14;20.10;87.30
24678;DHT22;12800;53.094;8.778;2023-09-18T04:49:40;20.10;87.30
24678;DHT22;12800;53.094;8.778;2023-09-18T04:52:06;20.10;87.20
24678;DHT22;12800;53.094;8.778;2023-09-18T04:54:31;20.10;87.00
24678;DHT22;12800;53.094;8.778;2023-09-18T04:56:57;20.10;86.90
24678;DHT22;12800;53.094;8.778;2023-09-18T04:59:23;20.20;86.80
24678;DHT22;12800;53.094;8.778;2023-09-18T05:01:48;20.20;86.60
24678;DHT22;12800;53.094;8.778;2023-09-18T05:04:14;20.20;86.50
24678;DHT22;12800;53.094;8.778;2023-09-18T05:06:39;20.30;86.40
24678;DHT22;12800;53.094;8.778;2023-09-18T05:09:07;20.30;86.30
24678;DHT22;12800;53.094;8.778;2023-09-18T05:11:32;20.30;86.20
24678;DHT22;12800;53.094;8.778;2023-09-18T05:13:58;20.30;86.10
24678;DHT22;12800;53.094;8.778;2023-09-18T05:16:24;20.30;86.00
24678;DHT22;12800;53.094;8.778;2023-09-18T05:18:49;20.30;86.00
24678;DHT22;12800;53.094;8.778;2023-09-18T05:21:15;20.40;85.90
24678;DHT22;12800;53.094;8.778;2023-09-18T05:23:41;20.40;85.80
24678;DHT22;12800;53.094;8.778;2023-09-18T05:26:07;20.40;85.60
24678;DHT22;12800;53.094;8.778;2023-09-18T05:28:32;20.50;85.50
24678;DHT22;12800;53.094;8.778;2023-09-18T05:30:58;20.50;85.40
24678;DHT22;12800;53.094;8.778;2023-09-18T05:33:24;20.50;85.20
24678;DHT22;12800;53.094;8.778;2023-09-18T05:35:49;20.50;85.10
24678;DHT22;12800;53.094;8.778;2023-09-18T05:38:16;20.60;85.00
24678;DHT22;12800;53.094;8.778;2023-09-18T05:40:43;20.60;84.80
24678;DHT22;12800;53.094;8.778;2023-09-18T05:43:10;20.60;84.70
24678;DHT22;12800;53.094;8.778;2023-09-18T05:45:37;20.60;84.70
24678;DHT22;12800;53.094;8.778;2023-09-18T05:48:04;20.70;84.60
24678;DHT22;12800;53.094;8.778;2023-09-18T05:50:34;20.70;84.50
24678;DHT22;12800;53.094;8.778;2023-09-18T05:53:03;20.70;84.40
24678;DHT22;12800;53.094;8.778;2023-09-18T05:55:33;20.70;84.40
24678;DHT22;12800;53.094;8.778;2023-09-18T05:57:59;20.70;84.30
24678;DHT22;12800;53.094;8.778;2023-09-18T06:00:25;20.80;84.20
24678;DHT22;12800;53.094;8.778;2023-09-18T06:02:51;20.80;84.20
24678;DHT22;12800;53.094;8.778;2023-09-18T06:05:17;20.80;84.10
24678;DHT22;12800;53.094;8.778;2023-09-18T06:07:44;20.80;84.00
24678;DHT22;12800;53.094;8.778;2023-09-18T06:10:12;20.80;84.00
24678;DHT22;12800;53.094;8.778;2023-09-18T06:12:38;20.80;84.00
24678;DHT22;12800;53.094;8.778;2023-09-18T06:15:08;20.80;85.00
24678;DHT22;12800;53.094;8.778;2023-09-18T06:17:37;20.80;84.30
24678;DHT22;12800;53.094;8.778;2023-09-18T06:20:03;20.80;84.40
24678;DHT22;12800;53.094;8.778;2023-09-18T06:22:29;20.80;84.50
24678;DHT22;12800;53.094;8.778;2023-09-18T06:24:55;20.80;84.50
24678;DHT22;12800;53.094;8.778;2023-09-18T06:27:20;20.80;84.60
24678;DHT22;12800;53.094;8.778;2023-09-18T06:29:46;20.80;84.70
24678;DHT22;12800;53.094;8.778;2023-09-18T06:32:12;20.80;84.70
24678;DHT22;12800;53.094;8.778;2023-09-18T06:34:38;20.90;84.80
24678;DHT22;12800;53.094;8.778;2023-09-18T06:37:03;20.90;85.60
24678;DHT22;12800;53.094;8.778;2023-09-18T06:39:31;20.90;84.70
24678;DHT22;12800;53.094;8.778;2023-09-18T06:41:57;21.00;84.70
24678;DHT22;12800;53.094;8.778;2023-09-18T06:44:22;21.00;84.70
24678;DHT22;12800;53.094;8.778;2023-09-18T06:46:49;21.00;84.60
24678;DHT22;12800;53.094;8.778;2023-09-18T06:49:14;21.00;84.50
24678;DHT22;12800;53.094;8.778;2023-09-18T06:51:40;21.10;84.30
24678;DHT22;12800;53.094;8.778;2023-09-18T06:54:05;21.10;84.20
24678;DHT22;12800;53.094;8.778;2023-09-18T06:56:31;21.10;84.10
24678;DHT22;12800;53.094;8.778;2023-09-18T06:58:59;21.10;84.10
24678;DHT22;12800;53.094;8.778;2023-09-18T07:01:25;21.10;83.90
24678;DHT22;12800;53.094;8.778;2023-09-18T07:03:52;21.10;83.90
24678;DHT22;12800;53.094;8.778;2023-09-18T07:06:18;21.10;84.20
24678;DHT22;12800;53.094;8.778;2023-09-18T07:08:47;21.10;84.00
24678;DHT22;12800;53.094;8.778;2023-09-18T07:11:15;21.10;84.10
24678;DHT22;12800;53.094;8.778;2023-09-18T07:13:41;21.10;84.40
24678;DHT22;12800;53.094;8.778;2023-09-18T07:16:07;21.10;84.60
24678;DHT22;12800;53.094;8.778;2023-09-18T07:18:33;21.10;84.60
24678;DHT22;12800;53.094;8.778;2023-09-18T07:20:58;21.10;84.70
24678;DHT22;12800;53.094;8.778;2023-09-18T07:23:24;21.10;84.70
24678;DHT22;12800;53.094;8.778;2023-09-18T07:25:49;21.10;84.80
24678;DHT22;12800;53.094;8.778;2023-09-18T07:28:15;21.10;85.00
24678;DHT22;12800;53.094;8.778;2023-09-18T07:30:43;21.10;85.00
24678;DHT22;12800;53.094;8.778;2023-09-18T07:33:10;21.10;85.00
24678;DHT22;12800;53.094;8.778;2023-09-18T07:35:36;21.10;85.10
24678;DHT22;12800;53.094;8.778;2023-09-18T07:38:01;21.10;85.20
24678;DHT22;12800;53.094;8.778;2023-09-18T07:40:27;21.10;85.30
24678;DHT22;12800;53.094;8.778;2023-09-18T07:42:53;21.10;85.40
24678;DHT22;12800;53.094;8.778;2023-09-18T07:45:19;21.20;85.40
24678;DHT22;12800;53.094;8.778;2023-09-18T07:47:44;21.20;85.40
24678;DHT22;12800;53.094;8.778;2023-09-18T07:50:10;21.20;85.40
24678;DHT22;12800;53.094;8.778;2023-09-18T07:52:36;21.30;85.40
24678;DHT22;12800;53.094;8.778;2023-09-18T07:55:01;21.30;85.40
24678;DHT22;12800;53.094;8.778;2023-09-18T07:57:27;21.30;85.50
24678;DHT22;12800;53.094;8.778;2023-09-18T07:59:59;21.40;85.40
24678;DHT22;12800;53.094;8.778;2023-09-18T08:02:32;21.30;85.40
24678;DHT22;12800;53.094;8.778;2023-09-18T08:04:58;21.40;85.50
24678;DHT22;12800;53.094;8.778;2023-09-18T08:07:23;21.40;85.50
24678;DHT22;12800;53.094;8.778;2023-09-18T08:09:49;21.40;85.40
24678;DHT22;12800;53.094;8.778;2023-09-18T08:12:14;21.50;85.50
24678;DHT22;12800;53.094;8.778;2023-09-18T08:14:40;21.50;85.30
24678;DHT22;12800;53.094;8.778;2023-09-18T08:17:06;21.50;85.20
24678;DHT22;12800;53.094;8.778;2023-09-18T08:19:33;21.50;85.20
24678;DHT22;12800;53.094;8.778;2023-09-18T08:21:58;21.60;85.20
24678;DHT22;12800;53.094;8.778;2023-09-18T08:24:29;21.60;85.10
24678;DHT22;12800;53.094;8.778;2023-09-18T08:26:54;21.70;85.10
24678;DHT22;12800;53.094;8.778;2023-09-18T08:29:21;21.70;85.00
24678;DHT22;12800;53.094;8.778;2023-09-18T08:31:48;21.70;85.00
24678;DHT22;12800;53.094;8.778;2023-09-18T08:34:14;21.80;84.90
24678;DHT22;12800;53.094;8.778;2023-09-18T08:36:40;21.90;84.90
24678;DHT22;12800;53.094;8.778;2023-09-18T08:39:06;21.90;84.70
24678;DHT22;12800;53.094;8.778;2023-09-18T08:41:32;22.00;84.60
24678;DHT22;12800;53.094;8.778;2023-09-18T08:44:02;22.10;84.40
24678;DHT22;12800;53.094;8.778;2023-09-18T08:46:30;22.20;85.00
24678;DHT22;12800;53.094;8.778;2023-09-18T08:48:57;22.40;84.10
24678;DHT22;12800;53.094;8.778;2023-09-18T08:51:24;22.50;83.80
24678;DHT22;12800;53.094;8.778;2023-09-18T08:53:50;22.60;83.50
24678;DHT22;12800;53.094;8.778;2023-09-18T08:56:17;22.70;83.20
24678;DHT22;12800;53.094;8.778;2023-09-18T08:58:43;22.80;82.90
24678;DHT22;12800;53.094;8.778;2023-09-18T09:01:10;23.00;82.70
24678;DHT22;12800;53.094;8.778;2023-09-18T09:03:37;23.10;82.40
24678;DHT22;12800;53.094;8.778;2023-09-18T09:06:04;23.20;82.00
24678;DHT22;12800;53.094;8.778;2023-09-18T09:08:31;23.30;81.40
24678;DHT22;12800;53.094;8.778;2023-09-18T09:10:56;23.40;80.90
24678;DHT22;12800;53.094;8.778;2023-09-18T09:13:25;23.50;80.40
24678;DHT22;12800;53.094;8.778;2023-09-18T09:15:53;23.50;80.10
24678;DHT22;12800;53.094;8.778;2023-09-18T09:18:22;23.60;79.80
24678;DHT22;12800;53.094;8.778;2023-09-18T09:21:00;23.70;79.60
24678;DHT22;12800;53.094;8.778;2023-09-18T09:23:28;23.70;79.40
24678;DHT22;12800;53.094;8.778;2023-09-18T09:26:16;23.70;79.20
24678;DHT22;12800;53.094;8.778;2023-09-18T09:28:41;23.80;79.00
24678;DHT22;12800;53.094;8.778;2023-09-18T09:31:08;23.80;79.50
24678;DHT22;12800;53.094;8.778;2023-09-18T09:33:36;23.80;78.40
24678;DHT22;12800;53.094;8.778;2023-09-18T09:36:07;23.90;78.30
24678;DHT22;12800;53.094;8.778;2023-09-18T09:38:34;23.90;78.10
24678;DHT22;12800;53.094;8.778;2023-09-18T09:41:01;24.00;77.90
24678;DHT22;12800;53.094;8.778;2023-09-18T09:43:31;24.00;77.50
24678;DHT22;12800;53.094;8.778;2023-09-18T09:46:00;24.10;77.50
24678;DHT22;12800;53.094;8.778;2023-09-18T09:48:25;24.10;77.20
24678;DHT22;12800;53.094;8.778;2023-09-18T09:50:52;24.20;77.10
24678;DHT22;12800;53.094;8.778;2023-09-18T09:53:46;24.20;76.90
24678;DHT22;12800;53.094;8.778;2023-09-18T09:56:14;24.20;76.60
24678;DHT22;12800;53.094;8.778;2023-09-18T09:58:40;24.30;76.50
24678;DHT22;12800;53.094;8.778;2023-09-18T10:01:11;24.30;76.20
24678;DHT22;12800;53.094;8.778;2023-09-18T10:03:43;24.30;76.20
24678;DHT22;12800;53.094;8.778;2023-09-18T10:06:09;24.30;76.10
24678;DHT22;12800;53.094;8.778;2023-09-18T10:08:38;24.30;76.00
24678;DHT22;12800;53.094;8.778;2023-09-18T10:11:09;24.30;76.00
24678;DHT22;12800;53.094;8.778;2023-09-18T10:13:51;24.30;75.70
24678;DHT22;12800;53.094;8.778;2023-09-18T10:16:19;24.30;75.70
24678;DHT22;12800;53.094;8.778;2023-09-18T10:24:42;24.20;75.70
24678;DHT22;12800;53.094;8.778;2023-09-18T10:27:12;24.20;75.90
24678;DHT22;12800;53.094;8.778;2023-09-18T10:29:41;24.20;75.90
24678;DHT22;12800;53.094;8.778;2023-09-18T10:32:07;24.30;75.80
24678;DHT22;12800;53.094;8.778;2023-09-18T10:34:34;24.30;75.60
24678;DHT22;12800;53.094;8.778;2023-09-18T10:37:01;24.30;75.60
24678;DHT22;12800;53.094;8.778;2023-09-18T10:39:28;24.40;75.60
24678;DHT22;12800;53.094;8.778;2023-09-18T10:41:55;24.40;75.30
24678;DHT22;12800;53.094;8.778;2023-09-18T10:44:23;24.40;75.30
24678;DHT22;12800;53.094;8.778;2023-09-18T10:46:49;24.40;75.20
24678;DHT22;12800;53.094;8.778;2023-09-18T10:49:17;24.40;75.10
24678;DHT22;12800;53.094;8.778;2023-09-18T10:51:44;24.40;75.00
24678;DHT22;12800;53.094;8.778;2023-09-18T10:54:14;24.40;74.70
24678;DHT22;12800;53.094;8.778;2023-09-18T10:56:42;24.40;74.70
24678;DHT22;12800;53.094;8.778;2023-09-18T10:59:08;24.30;74.50
24678;DHT22;12800;53.094;8.778;2023-09-18T11:01:35;24.30;74.80
24678;DHT22;12800;53.094;8.778;2023-09-18T11:04:05;24.20;74.70
24678;DHT22;12800;53.094;8.778;2023-09-18T11:09:24;24.20;74.80
24678;DHT22;12800;53.094;8.778;2023-09-18T11:12:09;24.20;74.80
24678;DHT22;12800;53.094;8.778;2023-09-18T11:14:58;24.30;74.80
24678;DHT22;12800;53.094;8.778;2023-09-18T11:17:35;24.40;74.80
24678;DHT22;12800;53.094;8.778;2023-09-18T11:20:24;24.40;74.70
24678;DHT22;12800;53.094;8.778;2023-09-18T11:23:15;24.60;74.40
24678;DHT22;12800;53.094;8.778;2023-09-18T11:25:42;24.60;74.30
24678;DHT22;12800;53.094;8.778;2023-09-18T11:28:14;24.70;74.00
24678;DHT22;12800;53.094;8.778;2023-09-18T11:30:53;24.80;73.60
24678;DHT22;12800;53.094;8.778;2023-09-18T11:33:39;24.80;73.50
24678;DHT22;12800;53.094;8.778;2023-09-18T11:36:28;24.90;73.40
24678;DHT22;12800;53.094;8.778;2023-09-18T11:38:57;24.90;73.20
24678;DHT22;12800;53.094;8.778;2023-09-18T11:41:28;24.90;73.30
24678;DHT22;12800;53.094;8.778;2023-09-18T11:46:48;25.00;72.80
24678;DHT22;12800;53.094;8.778;2023-09-18T11:49:24;25.10;72.80
24678;DHT22;12800;53.094;8.778;2023-09-18T11:51:54;25.10;72.80
24678;DHT22;12800;53.094;8.778;2023-09-18T11:54:20;25.10;72.70
24678;DHT22;12800;53.094;8.778;2023-09-18T11:56:47;25.10;72.60
24678;DHT22;12800;53.094;8.778;2023-09-18T11:59:12;25.10;72.30
24678;DHT22;12800;53.094;8.778;2023-09-18T12:01:38;25.10;72.40
24678;DHT22;12800;53.094;8.778;2023-09-18T12:04:11;25.00;72.10
24678;DHT22;12800;53.094;8.778;2023-09-18T12:06:41;25.00;71.80
24678;DHT22;12800;53.094;8.778;2023-09-18T12:09:08;24.90;71.90
24678;DHT22;12800;53.094;8.778;2023-09-18T12:11:34;24.80;72.10
24678;DHT22;12800;53.094;8.778;2023-09-18T12:14:01;24.80;72.20
24678;DHT22;12800;53.094;8.778;2023-09-18T12:16:28;24.90;72.50
24678;DHT22;12800;53.094;8.778;2023-09-18T12:18:53;25.00;72.40
24678;DHT22;12800;53.094;8.778;2023-09-18T12:21:19;25.10;71.80
24678;DHT22;12800;53.094;8.778;2023-09-18T12:23:45;25.20;71.40
24678;DHT22;12800;53.094;8.778;2023-09-18T12:26:12;25.30;71.30
24678;DHT22;12800;53.094;8.778;2023-09-18T12:28:40;25.40;70.90
24678;DHT22;12800;53.094;8.778;2023-09-18T12:31:09;25.40;70.60
24678;DHT22;12800;53.094;8.778;2023-09-18T12:33:36;25.40;70.30
24678;DHT22;12800;53.094;8.778;2023-09-18T12:36:03;25.30;69.70
24678;DHT22;12800;53.094;8.778;2023-09-18T12:38:30;25.30;69.60
24678;DHT22;12800;53.094;8.778;2023-09-18T12:40:56;25.20;69.20
24678;DHT22;12800;53.094;8.778;2023-09-18T12:43:30;25.20;68.90
24678;DHT22;12800;53.094;8.778;2023-09-18T12:45:57;25.20;68.90
24678;DHT22;12800;53.094;8.778;2023-09-18T12:48:22;25.20;68.90
24678;DHT22;12800;53.094;8.778;2023-09-18T12:50:54;25.20;68.50
24678;DHT22;12800;53.094;8.778;2023-09-18T12:53:22;25.20;68.20
24678;DHT22;12800;53.094;8.778;2023-09-18T12:55:48;25.20;68.00
24678;DHT22;12800;53.094;8.778;2023-09-18T12:58:19;25.20;67.90
24678;DHT22;12800;53.094;8.778;2023-09-18T13:00:47;25.20;67.60
24678;DHT22;12800;53.094;8.778;2023-09-18T13:03:15;25.20;67.50
24678;DHT22;12800;53.094;8.778;2023-09-18T13:05:40;25.20;67.50
24678;DHT22;12800;53.094;8.778;2023-09-18T13:08:06;25.20;67.50
24678;DHT22;12800;53.094;8.778;2023-09-18T13:11:01;25.30;67.60
24678;DHT22;12800;53.094;8.778;2023-09-18T13:13:28;25.30;67.20
24678;DHT22;12800;53.094;8.778;2023-09-18T13:15:58;25.30;67.00
24678;DHT22;12800;53.094;8.778;2023-09-18T13:18:25;25.30;67.00
24678;DHT22;12800;53.094;8.778;2023-09-18T13:20:51;25.30;67.10
24678;DHT22;12800;53.094;8.778;2023-09-18T13:23:17;25.30;66.80
24678;DHT22;12800;53.094;8.778;2023-09-18T13:25:43;25.30;66.50
24678;DHT22;12800;53.094;8.778;2023-09-18T13:28:11;25.30;66.40
24678;DHT22;12800;53.094;8.778;2023-09-18T13:30:39;25.40;66.50
24678;DHT22;12800;53.094;8.778;2023-09-18T13:33:07;25.40;66.50
24678;DHT22;12800;53.094;8.778;2023-09-18T13:35:34;25.60;66.40
24678;DHT22;12800;53.094;8.778;2023-09-18T13:38:00;25.80;67.00
24678;DHT22;12800;53.094;8.778;2023-09-18T13:40:26;25.90;65.70
24678;DHT22;12800;53.094;8.778;2023-09-18T13:42:53;26.00;65.40
24678;DHT22;12800;53.094;8.778;2023-09-18T13:45:19;26.10;65.00
24678;DHT22;12800;53.094;8.778;2023-09-18T13:47:45;26.20;64.90
24678;DHT22;12800;53.094;8.778;2023-09-18T13:50:11;26.20;64.60
24678;DHT22;12800;53.094;8.778;2023-09-18T13:52:38;26.30;64.40
24678;DHT22;12800;53.094;8.778;2023-09-18T13:55:04;26.40;64.00
24678;DHT22;12800;53.094;8.778;2023-09-18T13:57:35;26.50;63.60
24678;DHT22;12800;53.094;8.778;2023-09-18T14:00:02;26.50;63.30
24678;DHT22;12800;53.094;8.778;2023-09-18T14:02:32;26.50;63.00
24678;DHT22;12800;53.094;8.778;2023-09-18T14:04:58;26.50;62.90
24678;DHT22;12800;53.094;8.778;2023-09-18T14:07:24;26.70;64.00
24678;DHT22;12800;53.094;8.778;2023-09-18T14:09:50;26.70;63.00
24678;DHT22;12800;53.094;8.778;2023-09-18T14:12:15;26.80;62.40
24678;DHT22;12800;53.094;8.778;2023-09-18T14:14:42;26.80;62.10
24678;DHT22;12800;53.094;8.778;2023-09-18T14:17:08;26.70;62.30
24678;DHT22;12800;53.094;8.778;2023-09-18T14:19:34;26.70;62.40
24678;DHT22;12800;53.094;8.778;2023-09-18T14:22:00;26.80;62.10
24678;DHT22;12800;53.094;8.778;2023-09-18T14:24:31;27.00;62.30
24678;DHT22;12800;53.094;8.778;2023-09-18T14:26:56;27.00;61.60
24678;DHT22;12800;53.094;8.778;2023-09-18T14:29:22;27.10;61.60
24678;DHT22;12800;53.094;8.778;2023-09-18T14:31:48;27.20;61.70
24678;DHT22;12800;53.094;8.778;2023-09-18T14:34:13;27.20;61.50
24678;DHT22;12800;53.094;8.778;2023-09-18T14:36:39;27.20;60.60
24678;DHT22;12800;53.094;8.778;2023-09-18T14:39:06;27.10;60.60
24678;DHT22;12800;53.094;8.778;2023-09-18T14:41:37;26.90;60.30
24678;DHT22;12800;53.094;8.778;2023-09-18T14:44:04;26.80;60.60
24678;DHT22;12800;53.094;8.778;2023-09-18T14:46:31;26.70;61.20
24678;DHT22;12800;53.094;8.778;2023-09-18T14:49:03;26.70;60.80
24678;DHT22;12800;53.094;8.778;2023-09-18T14:51:29;26.70;60.50
24678;DHT22;12800;53.094;8.778;2023-09-18T14:53:57;26.80;60.60
24678;DHT22;12800;53.094;8.778;2023-09-18T14:56:23;26.80;60.60
24678;DHT22;12800;53.094;8.778;2023-09-18T14:58:49;26.80;60.50
24678;DHT22;12800;53.094;8.778;2023-09-18T15:01:19;26.90;60.50
24678;DHT22;12800;53.094;8.778;2023-09-18T15:03:46;26.80;60.00
24678;DHT22;12800;53.094;8.778;2023-09-18T15:06:12;26.80;60.00
24678;DHT22;12800;53.094;8.778;2023-09-18T15:08:37;26.90;59.90
24678;DHT22;12800;53.094;8.778;2023-09-18T15:11:03;27.00;59.90
24678;DHT22;12800;53.094;8.778;2023-09-18T15:13:30;26.90;59.70
24678;DHT22;12800;53.094;8.778;2023-09-18T15:15:56;26.90;59.90
24678;DHT22;12800;53.094;8.778;2023-09-18T15:18:22;27.00;59.80
24678;DHT22;12800;53.094;8.778;2023-09-18T15:20:48;27.00;59.70
24678;DHT22;12800;53.094;8.778;2023-09-18T15:23:20;27.00;59.40
24678;DHT22;12800;53.094;8.778;2023-09-18T15:25:47;27.10;59.70
24678;DHT22;12800;53.094;8.778;2023-09-18T15:28:15;27.20;59.50
24678;DHT22;12800;53.094;8.778;2023-09-18T15:30:43;27.20;59.60
24678;DHT22;12800;53.094;8.778;2023-09-18T15:33:08;27.10;59.50
24678;DHT22;12800;53.094;8.778;2023-09-18T15:35:34;27.00;59.50
24678;DHT22;12800;53.094;8.778;2023-09-18T15:37:59;27.00;59.60
24678;DHT22;12800;53.094;8.778;2023-09-18T15:40:26;27.00;59.40
24678;DHT22;12800;53.094;8.778;2023-09-18T15:42:52;27.20;59.40
24678;DHT22;12800;53.094;8.778;2023-09-18T15:45:17;27.50;59.30